sensor_id;sensor_type;location;lat;lon;timestamp;temperature;humidity
29281;DHT22;25048;49.590;11.026;2023-08-08T00:00:47;10.40;99.90
29281;DHT22;25048;49.590;11.026;2023-08-08T00:03:15;10.40;99.90
29281;DHT22;25048;49.590;11.026;2023-08-08T00:05:42;10.40;99.90
29281;DHT22;25048;49.590;11.026;2023-08-08T00:08:10;10.40;99.90
29281;DHT22;25048;49.590;11.026;2023-08-08T00:10:38;10.40;99.90
29281;DHT22;25048;49.590;11.026;2023-08-08T00:13:05;10.40;99.90
29281;DHT22;25048;49.590;11.026;2023-08-08T00:15:32;10.50;99.90
29281;DHT22;25048;49.590;11.026;2023-08-08T00:18:00;10.40;99.90
29281;DHT22;25048;49.590;11.026;2023-08-08T00:20:27;10.40;99.90
29281;DHT22;25048;49.590;11.026;2023-08-08T00:22:55;10.40;99.90
29281;DHT22;25048;49.590;11.026;2023-08-08T00:25:23;10.40;99.90
29281;DHT22;25048;49.590;11.026;2023-08-08T00:27:50;10.40;99.90
29281;DHT22;25048;49.590;11.026;2023-08-08T00:30:18;10.40;99.90
29281;DHT22;25048;49.590;11.026;2023-08-08T00:32:45;10.40;99.90
29281;DHT22;25048;49.590;11.026;2023-08-08T00:35:13;10.40;99.90
29281;DHT22;25048;49.590;11.026;2023-08-08T00:37:40;10.40;99.90
29281;DHT22;25048;49.590;11.026;2023-08-08T00:40:08;10.40;99.90
29281;DHT22;25048;49.590;11.026;2023-08-08T00:42:36;10.40;99.90
29281;DHT22;25048;49.590;11.026;2023-08-08T00:45:04;10.40;99.90
29281;DHT22;25048;49.590;11.026;2023-08-08T00:47:34;10.30;99.90
29281;DHT22;25048;49.590;11.026;2023-08-08T00:50:03;10.30;99.90
29281;DHT22;25048;49.590;11.026;2023-08-08T00:52:31;10.30;99.90
29281;DHT22;25048;49.590;11.026;2023-08-08T00:54:59;10.30;99.90
29281;DHT22;25048;49.590;11.026;2023-08-08T00:57:28;10.30;99.90
29281;DHT22;25048;49.590;11.026;2023-08-08T00:59:55;10.30;99.90
29281;DHT22;25048;49.590;11.026;2023-08-08T01:02:23;10.30;99.90
29281;DHT22;25048;49.590;11.026;2023-08-08T01:04:50;10.30;99.90
29281;DHT22;25048;49.590;11.026;2023-08-08T01:07:35;10.30;99.90
29281;DHT22;25048;49.590;11.026;2023-08-08T01:09:59;10.30;99.90
29281;DHT22;25048;49.590;11.026;2023-08-08T01:12:32;10.30;99.90
29281;DHT22;25048;49.590;11.026;2023-08-08T01:15:00;10.30;99.90
29281;DHT22;25048;49.590;11.026;2023-08-08T01:17:28;10.40;99.90
29281;DHT22;25048;49.590;11.026;2023-08-08T01:19:56;10.40;99.90
29281;DHT22;25048;49.590;11.026;2023-08-08T01:22:25;10.40;99.90
29281;DHT22;25048;49.590;11.026;2023-08-08T01:24:54;10.50;99.90
29281;DHT22;25048;49.590;11.026;2023-08-08T01:27:23;10.50;99.90
29281;DHT22;25048;49.590;11.026;2023-08-08T01:29:50;10.50;99.90
29281;DHT22;25048;49.590;11.026;2023-08-08T01:32:18;10.50;99.90
29281;DHT22;25048;49.590;11.026;2023-08-08T01:34:45;10.50;99.90
29281;DHT22;25048;49.590;11.026;2023-08-08T01:37:22;10.50;99.90
29281;DHT22;25048;49.590;11.026;2023-08-08T01:39:51;10.60;99.90
29281;DHT22;25048;49.590;11.026;2023-08-08T01:42:21;10.60;99.90
29281;DHT22;25048;49.590;11.026;2023-08-08T01:44:50;10.60;99.90
29281;DHT22;25048;49.590;11.026;2023-08-08T01:47:17;10.70;99.90
29281;DHT22;25048;49.590;11.026;2023-08-08T01:49:45;10.70;99.90
29281;DHT22;25048;49.590;11.026;2023-08-08T01:52:12;10.70;99.90
29281;DHT22;25048;49.590;11.026;2023-08-08T01:54:40;10.70;99.90
29281;DHT22;25048;49.590;11.026;2023-08-08T01:57:09;10.70;99.90
29281;DHT22;25048;49.590;11.026;2023-08-08T01:59:36;10.80;99.90
29281;DHT22;25048;49.590;11.026;2023-08-08T02:02:04;10.70;99.90
29281;DHT22;25048;49.590;11.026;2023-08-08T02:04:32;10.70;99.90
29281;DHT22;25048;49.590;11.026;2023-08-08T02:07:00;10.70;99.90
29281;DHT22;25048;49.590;11.026;2023-08-08T02:09:27;10.70;99.90
29281;DHT22;25048;49.590;11.026;2023-08-08T02:11:55;10.60;99.90
29281;DHT22;25048;49.590;11.026;2023-08-08T02:14:22;10.60;99.90
29281;DHT22;25048;49.590;11.026;2023-08-08T02:16:50;10.60;99.90
29281;DHT22;25048;49.590;11.026;2023-08-08T02:19:17;10.60;99.90
29281;DHT22;25048;49.590;11.026;2023-08-08T02:21:45;10.50;99.90
29281;DHT22;25048;49.590;11.026;2023-08-08T02:24:12;10.60;99.90
29281;DHT22;25048;49.590;11.026;2023-08-08T02:26:40;10.50;99.90
29281;DHT22;25048;49.590;11.026;2023-08-08T02:29:07;10.50;99.90
29281;DHT22;25048;49.590;11.026;2023-08-08T02:31:35;10.50;99.90
29281;DHT22;25048;49.590;11.026;2023-08-08T02:34:02;10.50;99.90
29281;DHT22;25048;49.590;11.026;2023-08-08T02:36:30;10.40;99.90
29281;DHT22;25048;49.590;11.026;2023-08-08T02:38:57;10.40;99.90
29281;DHT22;25048;49.590;11.026;2023-08-08T02:41:25;10.40;99.90
29281;DHT22;25048;49.590;11.026;2023-08-08T02:43:52;10.40;99.90
29281;DHT22;25048;49.590;11.026;2023-08-08T02:46:20;10.40;99.90
29281;DHT22;25048;49.590;11.026;2023-08-08T02:48:47;10.40;99.90
29281;DHT22;25048;49.590;11.026;2023-08-08T02:51:15;10.40;99.90
29281;DHT22;25048;49.590;11.026;2023-08-08T02:53:42;10.40;99.90
29281;DHT22;25048;49.590;11.026;2023-08-08T02:56:10;10.50;99.90
29281;DHT22;25048;49.590;11.026;2023-08-08T02:58:37;10.50;99.90
29281;DHT22;25048;49.590;11.026;2023-08-08T03:01:05;10.50;99.90
29281;DHT22;25048;49.590;11.026;2023-08-08T03:03:32;10.50;99.90
29281;DHT22;25048;49.590;11.026;2023-08-08T03:06:01;10.50;99.90
29281;DHT22;25048;49.590;11.026;2023-08-08T03:08:29;10.50;99.90
29281;DHT22;25048;49.590;11.026;2023-08-08T03:10:56;10.50;99.90
29281;DHT22;25048;49.590;11.026;2023-08-08T03:13:24;10.50;99.90
29281;DHT22;25048;49.590;11.026;2023-08-08T03:15:51;10.50;99.90
29281;DHT22;25048;49.590;11.026;2023-08-08T03:18:19;10.50;99.90
29281;DHT22;25048;49.590;11.026;2023-08-08T03:20:46;10.50;99.90
29281;DHT22;25048;49.590;11.026;2023-08-08T03:23:14;10.50;99.90
29281;DHT22;25048;49.590;11.026;2023-08-08T03:25:41;10.50;99.90
29281;DHT22;25048;49.590;11.026;2023-08-08T03:28:09;10.50;99.90
29281;DHT22;25048;49.590;11.026;2023-08-08T03:30:37;10.40;99.90
29281;DHT22;25048;49.590;11.026;2023-08-08T03:33:05;10.40;99.90
29281;DHT22;25048;49.590;11.026;2023-08-08T03:35:32;10.40;99.90
29281;DHT22;25048;49.590;11.026;2023-08-08T03:38:00;10.40;99.90
29281;DHT22;25048;49.590;11.026;2023-08-08T03:40:29;10.40;99.90
29281;DHT22;25048;49.590;11.026;2023-08-08T03:42:57;10.40;99.90
29281;DHT22;25048;49.590;11.026;2023-08-08T03:45:24;10.40;99.90
29281;DHT22;25048;49.590;11.026;2023-08-08T03:47:52;10.40;99.90
29281;DHT22;25048;49.590;11.026;2023-08-08T03:50:19;10.40;99.90
29281;DHT22;25048;49.590;11.026;2023-08-08T03:52:47;10.30;99.90
29281;DHT22;25048;49.590;11.026;2023-08-08T03:55:14;10.30;99.90
29281;DHT22;25048;49.590;11.026;2023-08-08T03:57:42;10.20;99.90
29281;DHT22;25048;49.590;11.026;2023-08-08T04:00:09;10.20;99.90
29281;DHT22;25048;49.590;11.026;2023-08-08T04:02:38;10.10;99.90
29281;DHT22;25048;49.590;11.026;2023-08-08T04:05:06;10.10;99.90
29281;DHT22;25048;49.590;11.026;2023-08-08T04:07:34;10.10;99.90
29281;DHT22;25048;49.590;11.026;2023-08-08T04:10:01;10.00;99.90
29281;DHT22;25048;49.590;11.026;2023-08-08T04:12:29;9.90;99.90
29281;DHT22;25048;49.590;11.026;2023-08-08T04:14:57;9.90;99.90
29281;DHT22;25048;49.590;11.026;2023-08-08T04:17:24;9.90;99.90
29281;DHT22;25048;49.590;11.026;2023-08-08T04:19:52;9.80;99.90
29281;DHT22;25048;49.590;11.026;2023-08-08T04:22:19;9.80;99.90
29281;DHT22;25048;49.590;11.026;2023-08-08T04:24:47;9.70;99.90
29281;DHT22;25048;49.590;11.026;2023-08-08T04:27:14;9.70;99.90
29281;DHT22;25048;49.590;11.026;2023-08-08T04:29:42;9.70;99.90
29281;DHT22;25048;49.590;11.026;2023-08-08T04:32:09;9.70;99.90
29281;DHT22;25048;49.590;11.026;2023-08-08T04:34:37;9.70;99.90
29281;DHT22;25048;49.590;11.026;2023-08-08T04:37:04;9.70;99.90
29281;DHT22;25048;49.590;11.026;2023-08-08T04:39:32;9.70;99.90
29281;DHT22;25048;49.590;11.026;2023-08-08T04:41:59;9.80;99.90
29281;DHT22;25048;49.590;11.026;2023-08-08T04:44:27;9.80;99.90
29281;DHT22;25048;49.590;11.026;2023-08-08T04:46:55;9.80;99.90
29281;DHT22;25048;49.590;11.026;2023-08-08T04:49:22;9.80;99.90
29281;DHT22;25048;49.590;11.026;2023-08-08T04:51:50;9.80;99.90
29281;DHT22;25048;49.590;11.026;2023-08-08T04:54:17;9.90;99.90
29281;DHT22;25048;49.590;11.026;2023-08-08T04:56:45;10.00;99.90
29281;DHT22;25048;49.590;11.026;2023-08-08T04:59:14;10.00;99.90
29281;DHT22;25048;49.590;11.026;2023-08-08T05:01:41;10.10;99.90
29281;DHT22;25048;49.590;11.026;2023-08-08T05:04:09;10.10;99.90
29281;DHT22;25048;49.590;11.026;2023-08-08T05:06:37;10.10;99.90
29281;DHT22;25048;49.590;11.026;2023-08-08T05:09:04;10.20;99.90
29281;DHT22;25048;49.590;11.026;2023-08-08T05:11:32;10.20;99.90
29281;DHT22;25048;49.590;11.026;2023-08-08T05:14:00;10.30;99.90
29281;DHT22;25048;49.590;11.026;2023-08-08T05:16:27;10.40;99.90
29281;DHT22;25048;49.590;11.026;2023-08-08T05:18:55;10.40;99.90
29281;DHT22;25048;49.590;11.026;2023-08-08T05:21:22;10.50;99.90
29281;DHT22;25048;49.590;11.026;2023-08-08T05:23:50;10.50;99.90
29281;DHT22;25048;49.590;11.026;2023-08-08T05:26:18;10.60;99.90
29281;DHT22;25048;49.590;11.026;2023-08-08T05:28:45;10.70;99.90
29281;DHT22;25048;49.590;11.026;2023-08-08T05:31:13;10.80;99.90
29281;DHT22;25048;49.590;11.026;2023-08-08T05:33:40;10.90;99.90
29281;DHT22;25048;49.590;11.026;2023-08-08T05:36:08;11.00;99.90
29281;DHT22;25048;49.590;11.026;2023-08-08T05:38:37;11.20;99.90
29281;DHT22;25048;49.590;11.026;2023-08-08T05:41:04;11.30;99.90
29281;DHT22;25048;49.590;11.026;2023-08-08T05:43:32;11.50;99.90
29281;DHT22;25048;49.590;11.026;2023-08-08T05:45:59;11.60;99.90
29281;DHT22;25048;49.590;11.026;2023-08-08T05:48:27;11.70;99.90
29281;DHT22;25048;49.590;11.026;2023-08-08T05:50:54;11.80;99.90
29281;DHT22;25048;49.590;11.026;2023-08-08T05:53:23;12.00;99.90
29281;DHT22;25048;49.590;11.026;2023-08-08T05:55:51;12.10;99.90
29281;DHT22;25048;49.590;11.026;2023-08-08T05:58:19;12.30;99.90
29281;DHT22;25048;49.590;11.026;2023-08-08T06:00:46;12.40;99.90
29281;DHT22;25048;49.590;11.026;2023-08-08T06:03:14;12.60;99.90
29281;DHT22;25048;49.590;11.026;2023-08-08T06:05:41;12.80;99.90
29281;DHT22;25048;49.590;11.026;2023-08-08T06:08:08;13.00;99.90
29281;DHT22;25048;49.590;11.026;2023-08-08T06:10:38;13.30;99.90
29281;DHT22;25048;49.590;11.026;2023-08-08T06:13:05;13.40;99.90
29281;DHT22;25048;49.590;11.026;2023-08-08T06:15:33;13.60;99.90
29281;DHT22;25048;49.590;11.026;2023-08-08T06:18:00;13.80;99.90
29281;DHT22;25048;49.590;11.026;2023-08-08T06:20:28;14.00;99.90
29281;DHT22;25048;49.590;11.026;2023-08-08T06:22:55;14.10;99.90
29281;DHT22;25048;49.590;11.026;2023-08-08T06:25:23;14.30;99.90
29281;DHT22;25048;49.590;11.026;2023-08-08T06:27:50;14.40;99.90
29281;DHT22;25048;49.590;11.026;2023-08-08T06:30:18;14.50;99.90
29281;DHT22;25048;49.590;11.026;2023-08-08T06:32:46;14.70;99.90
29281;DHT22;25048;49.590;11.026;2023-08-08T06:35:13;14.80;99.90
29281;DHT22;25048;49.590;11.026;2023-08-08T06:37:42;14.90;99.90
29281;DHT22;25048;49.590;11.026;2023-08-08T06:40:11;15.10;99.90
29281;DHT22;25048;49.590;11.026;2023-08-08T06:42:39;15.20;99.90
29281;DHT22;25048;49.590;11.026;2023-08-08T06:45:07;15.30;99.90
29281;DHT22;25048;49.590;11.026;2023-08-08T06:47:36;15.40;99.90
29281;DHT22;25048;49.590;11.026;2023-08-08T06:50:03;15.40;99.90
29281;DHT22;25048;49.590;11.026;2023-08-08T06:52:31;15.50;99.90
29281;DHT22;25048;49.590;11.026;2023-08-08T06:54:59;15.50;99.90
29281;DHT22;25048;49.590;11.026;2023-08-08T06:57:26;15.70;99.90
29281;DHT22;25048;49.590;11.026;2023-08-08T06:59:54;15.70;99.90
29281;DHT22;25048;49.590;11.026;2023-08-08T07:02:21;15.80;99.90
29281;DHT22;25048;49.590;11.026;2023-08-08T07:04:49;15.90;99.90
29281;DHT22;25048;49.590;11.026;2023-08-08T07:07:16;15.90;99.90
29281;DHT22;25048;49.590;11.026;2023-08-08T07:09:44;16.00;99.90
29281;DHT22;25048;49.590;11.026;2023-08-08T07:12:11;16.20;99.90
29281;DHT22;25048;49.590;11.026;2023-08-08T07:14:39;16.20;99.90
29281;DHT22;25048;49.590;11.026;2023-08-08T07:17:06;16.30;99.90
29281;DHT22;25048;49.590;11.026;2023-08-08T07:19:35;16.40;99.90
29281;DHT22;25048;49.590;11.026;2023-08-08T07:22:03;16.50;99.90
29281;DHT22;25048;49.590;11.026;2023-08-08T07:24:31;16.60;99.90
29281;DHT22;25048;49.590;11.026;2023-08-08T07:26:59;16.50;99.90
29281;DHT22;25048;49.590;11.026;2023-08-08T07:29:26;16.60;99.90
29281;DHT22;25048;49.590;11.026;2023-08-08T07:31:54;16.70;99.90
29281;DHT22;25048;49.590;11.026;2023-08-08T07:34:21;16.80;99.90
29281;DHT22;25048;49.590;11.026;2023-08-08T07:36:49;16.90;99.90
29281;DHT22;25048;49.590;11.026;2023-08-08T07:39:16;17.00;99.90
29281;DHT22;25048;49.590;11.026;2023-08-08T07:41:44;17.10;99.90
29281;DHT22;25048;49.590;11.026;2023-08-08T07:44:11;17.20;99.90
29281;DHT22;25048;49.590;11.026;2023-08-08T07:46:39;17.30;99.90
29281;DHT22;25048;49.590;11.026;2023-08-08T07:49:06;17.40;99.90
29281;DHT22;25048;49.590;11.026;2023-08-08T07:51:36;17.60;99.90
29281;DHT22;25048;49.590;11.026;2023-08-08T07:54:03;17.60;99.90
29281;DHT22;25048;49.590;11.026;2023-08-08T07:56:32;17.70;99.90
29281;DHT22;25048;49.590;11.026;2023-08-08T07:59:00;17.80;99.90
29281;DHT22;25048;49.590;11.026;2023-08-08T08:01:31;17.90;99.90
29281;DHT22;25048;49.590;11.026;2023-08-08T08:03:58;17.90;99.90
29281;DHT22;25048;49.590;11.026;2023-08-08T08:06:26;18.00;99.90
29281;DHT22;25048;49.590;11.026;2023-08-08T08:08:54;18.00;99.90
29281;DHT22;25048;49.590;11.026;2023-08-08T08:11:22;18.20;99.90
29281;DHT22;25048;49.590;11.026;2023-08-08T08:13:49;18.30;99.90
29281;DHT22;25048;49.590;11.026;2023-08-08T08:16:17;18.50;99.90
29281;DHT22;25048;49.590;11.026;2023-08-08T08:18:44;18.70;99.90
29281;DHT22;25048;49.590;11.026;2023-08-08T08:21:14;18.90;99.90
29281;DHT22;25048;49.590;11.026;2023-08-08T08:23:44;19.20;99.90
29281;DHT22;25048;49.590;11.026;2023-08-08T08:26:12;19.30;99.90
29281;DHT22;25048;49.590;11.026;2023-08-08T08:28:39;19.10;99.90
29281;DHT22;25048;49.590;11.026;2023-08-08T08:31:07;19.10;99.90
29281;DHT22;25048;49.590;11.026;2023-08-08T08:33:35;19.10;99.90
29281;DHT22;25048;49.590;11.026;2023-08-08T08:36:03;19.10;99.90
29281;DHT22;25048;49.590;11.026;2023-08-08T08:38:30;19.00;99.90
29281;DHT22;25048;49.590;11.026;2023-08-08T08:40:58;18.90;99.90
29281;DHT22;25048;49.590;11.026;2023-08-08T08:43:26;19.00;99.90
29281;DHT22;25048;49.590;11.026;2023-08-08T08:45:53;19.10;99.90
29281;DHT22;25048;49.590;11.026;2023-08-08T08:48:22;19.20;99.90
29281;DHT22;25048;49.590;11.026;2023-08-08T08:50:49;19.30;99.90
29281;DHT22;25048;49.590;11.026;2023-08-08T08:53:18;19.50;99.90
29281;DHT22;25048;49.590;11.026;2023-08-08T08:55:45;19.70;99.90
29281;DHT22;25048;49.590;11.026;2023-08-08T08:58:15;20.00;99.90
29281;DHT22;25048;49.590;11.026;2023-08-08T09:00:45;20.20;99.90
29281;DHT22;25048;49.590;11.026;2023-08-08T09:03:13;20.40;99.90
29281;DHT22;25048;49.590;11.026;2023-08-08T09:05:41;20.40;99.90
29281;DHT22;25048;49.590;11.026;2023-08-08T09:08:11;20.40;99.90
29281;DHT22;25048;49.590;11.026;2023-08-08T09:10:39;20.40;99.90
29281;DHT22;25048;49.590;11.026;2023-08-08T09:13:07;20.40;99.90
29281;DHT22;25048;49.590;11.026;2023-08-08T09:15:34;20.50;99.90
29281;DHT22;25048;49.590;11.026;2023-08-08T09:18:02;20.60;99.90
29281;DHT22;25048;49.590;11.026;2023-08-08T09:20:30;20.70;99.90
29281;DHT22;25048;49.590;11.026;2023-08-08T09:22:57;20.80;99.90
29281;DHT22;25048;49.590;11.026;2023-08-08T09:25:26;20.90;99.90
29281;DHT22;25048;49.590;11.026;2023-08-08T09:27:54;21.10;99.90
29281;DHT22;25048;49.590;11.026;2023-08-08T09:30:22;21.20;99.90
29281;DHT22;25048;49.590;11.026;2023-08-08T09:32:50;21.40;99.90
29281;DHT22;25048;49.590;11.026;2023-08-08T09:35:17;21.40;99.90
29281;DHT22;25048;49.590;11.026;2023-08-08T09:37:45;21.30;99.90
29281;DHT22;25048;49.590;11.026;2023-08-08T09:40:13;21.40;99.90
29281;DHT22;25048;49.590;11.026;2023-08-08T09:42:41;21.30;99.90
29281;DHT22;25048;49.590;11.026;2023-08-08T09:45:09;21.20;99.90
29281;DHT22;25048;49.590;11.026;2023-08-08T09:47:37;21.20;99.90
29281;DHT22;25048;49.590;11.026;2023-08-08T09:50:06;21.10;99.90
29281;DHT22;25048;49.590;11.026;2023-08-08T09:52:35;21.00;99.90
29281;DHT22;25048;49.590;11.026;2023-08-08T09:55:05;21.00;99.90
29281;DHT22;25048;49.590;11.026;2023-08-08T09:57:34;21.00;99.90
29281;DHT22;25048;49.590;11.026;2023-08-08T10:00:03;20.90;99.90
29281;DHT22;25048;49.590;11.026;2023-08-08T10:02:32;20.90;99.90
29281;DHT22;25048;49.590;11.026;2023-08-08T10:05:00;21.00;99.90
29281;DHT22;25048;49.590;11.026;2023-08-08T10:07:28;21.10;99.90
29281;DHT22;25048;49.590;11.026;2023-08-08T10:09:57;21.10;99.90
29281;DHT22;25048;49.590;11.026;2023-08-08T10:12:26;21.10;99.90
29281;DHT22;25048;49.590;11.026;2023-08-08T10:14:55;21.30;99.90
29281;DHT22;25048;49.590;11.026;2023-08-08T10:17:23;21.50;99.90
29281;DHT22;25048;49.590;11.026;2023-08-08T10:19:57;21.60;99.80
29281;DHT22;25048;49.590;11.026;2023-08-08T10:22:27;21.60;99.90
29281;DHT22;25048;49.590;11.026;2023-08-08T10:24:55;21.30;99.90
29281;DHT22;25048;49.590;11.026;2023-08-08T10:27:34;21.10;99.90
29281;DHT22;25048;49.590;11.026;2023-08-08T10:30:07;21.00;99.90
29281;DHT22;25048;49.590;11.026;2023-08-08T10:32:42;21.00;99.90
29281;DHT22;25048;49.590;11.026;2023-08-08T10:35:11;21.00;99.90
29281;DHT22;25048;49.590;11.026;2023-08-08T10:37:40;21.00;99.90
29281;DHT22;25048;49.590;11.026;2023-08-08T10:40:08;21.00;99.90
29281;DHT22;25048;49.590;11.026;2023-08-08T10:42:43;21.20;99.90
29281;DHT22;25048;49.590;11.026;2023-08-08T10:45:13;21.40;99.90
29281;DHT22;25048;49.590;11.026;2023-08-08T10:47:41;21.60;99.20
29281;DHT22;25048;49.590;11.026;2023-08-08T10:50:14;21.60;99.70
29281;DHT22;25048;49.590;11.026;2023-08-08T10:55:27;21.60;99.40
29281;DHT22;25048;49.590;11.026;2023-08-08T10:58:03;21.70;99.60
29281;DHT22;25048;49.590;11.026;2023-08-08T11:00:30;21.80;99.90
29281;DHT22;25048;49.590;11.026;2023-08-08T11:02:59;22.20;99.90
29281;DHT22;25048;49.590;11.026;2023-08-08T11:05:31;22.30;99.40
29281;DHT22;25048;49.590;11.026;2023-08-08T11:08:00;22.20;98.60
29281;DHT22;25048;49.590;11.026;2023-08-08T11:10:28;22.20;99.90
29281;DHT22;25048;49.590;11.026;2023-08-08T11:13:00;22.40;99.00
29281;DHT22;25048;49.590;11.026;2023-08-08T11:15:28;22.40;98.50
29281;DHT22;25048;49.590;11.026;2023-08-08T11:17:56;22.20;97.60
29281;DHT22;25048;49.590;11.026;2023-08-08T11:20:25;22.10;98.70
29281;DHT22;25048;49.590;11.026;2023-08-08T11:22:54;22.10;98.70
29281;DHT22;25048;49.590;11.026;2023-08-08T11:25:25;22.10;99.50
29281;DHT22;25048;49.590;11.026;2023-08-08T11:27:52;22.20;98.60
29281;DHT22;25048;49.590;11.026;2023-08-08T11:30:21;22.30;97.40
29281;DHT22;25048;49.590;11.026;2023-08-08T11:32:50;22.20;98.50
29281;DHT22;25048;49.590;11.026;2023-08-08T11:35:20;22.20;97.30
29281;DHT22;25048;49.590;11.026;2023-08-08T11:37:49;22.20;96.70
29281;DHT22;25048;49.590;11.026;2023-08-08T11:40:17;22.20;96.50
29281;DHT22;25048;49.590;11.026;2023-08-08T11:42:45;22.20;97.30
29281;DHT22;25048;49.590;11.026;2023-08-08T11:45:13;22.20;97.50
29281;DHT22;25048;49.590;11.026;2023-08-08T11:47:41;22.20;97.10
29281;DHT22;25048;49.590;11.026;2023-08-08T11:50:10;22.10;96.80
29281;DHT22;25048;49.590;11.026;2023-08-08T11:52:43;22.20;97.30
29281;DHT22;25048;49.590;11.026;2023-08-08T11:55:12;22.50;99.10
29281;DHT22;25048;49.590;11.026;2023-08-08T11:57:40;22.70;96.90
29281;DHT22;25048;49.590;11.026;2023-08-08T12:00:10;22.90;96.70
29281;DHT22;25048;49.590;11.026;2023-08-08T12:02:44;22.80;96.80
29281;DHT22;25048;49.590;11.026;2023-08-08T12:05:13;23.00;98.00
29281;DHT22;25048;49.590;11.026;2023-08-08T12:07:47;23.20;96.40
29281;DHT22;25048;49.590;11.026;2023-08-08T12:10:20;23.40;97.00
29281;DHT22;25048;49.590;11.026;2023-08-08T12:12:54;23.40;95.40
29281;DHT22;25048;49.590;11.026;2023-08-08T12:15:23;23.50;95.50
29281;DHT22;25048;49.590;11.026;2023-08-08T12:17:51;23.50;94.50
29281;DHT22;25048;49.590;11.026;2023-08-08T12:20:19;23.50;94.50
29281;DHT22;25048;49.590;11.026;2023-08-08T12:22:47;23.60;95.50
29281;DHT22;25048;49.590;11.026;2023-08-08T12:25:14;23.80;95.50
29281;DHT22;25048;49.590;11.026;2023-08-08T12:27:42;23.70;94.80
29281;DHT22;25048;49.590;11.026;2023-08-08T12:30:09;23.80;94.70
29281;DHT22;25048;49.590;11.026;2023-08-08T12:32:37;23.70;93.90
29281;DHT22;25048;49.590;11.026;2023-08-08T12:35:05;23.80;94.20
29281;DHT22;25048;49.590;11.026;2023-08-08T12:37:33;23.80;93.90
29281;DHT22;25048;49.590;11.026;2023-08-08T12:40:00;23.90;93.40
29281;DHT22;25048;49.590;11.026;2023-08-08T12:42:29;24.00;93.70
29281;DHT22;25048;49.590;11.026;2023-08-08T12:44:56;24.10;94.30
29281;DHT22;25048;49.590;11.026;2023-08-08T12:47:24;24.20;93.20
29281;DHT22;25048;49.590;11.026;2023-08-08T12:49:51;24.10;91.70
29281;DHT22;25048;49.590;11.026;2023-08-08T12:52:19;24.10;92.00
29281;DHT22;25048;49.590;11.026;2023-08-08T12:54:47;24.20;93.30
29281;DHT22;25048;49.590;11.026;2023-08-08T12:57:14;24.40;91.60
29281;DHT22;25048;49.590;11.026;2023-08-08T12:59:42;24.50;92.10
29281;DHT22;25048;49.590;11.026;2023-08-08T13:02:09;24.40;92.60
29281;DHT22;25048;49.590;11.026;2023-08-08T13:04:56;24.20;92.20
29281;DHT22;25048;49.590;11.026;2023-08-08T13:07:24;24.30;93.70
29281;DHT22;25048;49.590;11.026;2023-08-08T13:09:52;24.60;91.70
29281;DHT22;25048;49.590;11.026;2023-08-08T13:12:19;24.70;91.40
29281;DHT22;25048;49.590;11.026;2023-08-08T13:14:48;24.80;90.40
29281;DHT22;25048;49.590;11.026;2023-08-08T13:17:15;24.80;89.30
29281;DHT22;25048;49.590;11.026;2023-08-08T13:19:43;24.90;90.60
29281;DHT22;25048;49.590;11.026;2023-08-08T13:22:10;25.00;90.10
29281;DHT22;25048;49.590;11.026;2023-08-08T13:24:39;25.00;90.10
29281;DHT22;25048;49.590;11.026;2023-08-08T13:27:06;25.10;91.70
29281;DHT22;25048;49.590;11.026;2023-08-08T13:29:34;25.20;90.00
29281;DHT22;25048;49.590;11.026;2023-08-08T13:32:01;25.30;88.90
29281;DHT22;25048;49.590;11.026;2023-08-08T13:34:30;25.40;86.50
29281;DHT22;25048;49.590;11.026;2023-08-08T13:36:57;25.40;87.80
29281;DHT22;25048;49.590;11.026;2023-08-08T13:39:25;25.30;89.80
29281;DHT22;25048;49.590;11.026;2023-08-08T13:41:52;25.20;87.00
29281;DHT22;25048;49.590;11.026;2023-08-08T13:44:20;25.10;86.00
29281;DHT22;25048;49.590;11.026;2023-08-08T13:46:47;25.00;87.80
29281;DHT22;25048;49.590;11.026;2023-08-08T13:49:15;25.00;85.90
29281;DHT22;25048;49.590;11.026;2023-08-08T13:51:42;25.00;87.20
29281;DHT22;25048;49.590;11.026;2023-08-08T13:54:10;25.00;88.30
29281;DHT22;25048;49.590;11.026;2023-08-08T13:56:37;25.00;87.20
29281;DHT22;25048;49.590;11.026;2023-08-08T13:59:05;25.10;85.60
29281;DHT22;25048;49.590;11.026;2023-08-08T14:01:33;24.90;84.30
29281;DHT22;25048;49.590;11.026;2023-08-08T14:04:00;24.60;83.90
29281;DHT22;25048;49.590;11.026;2023-08-08T14:06:28;24.30;87.20
29281;DHT22;25048;49.590;11.026;2023-08-08T14:08:56;23.90;85.00
29281;DHT22;25048;49.590;11.026;2023-08-08T14:11:24;23.60;85.00
29281;DHT22;25048;49.590;11.026;2023-08-08T14:13:51;23.30;86.90
29281;DHT22;25048;49.590;11.026;2023-08-08T14:16:19;23.10;86.30
29281;DHT22;25048;49.590;11.026;2023-08-08T14:18:46;23.10;86.70
29281;DHT22;25048;49.590;11.026;2023-08-08T14:21:15;23.30;86.30
29281;DHT22;25048;49.590;11.026;2023-08-08T14:23:43;23.40;86.00
29281;DHT22;25048;49.590;11.026;2023-08-08T14:26:11;23.20;86.30
29281;DHT22;25048;49.590;11.026;2023-08-08T14:28:38;23.20;89.10
29281;DHT22;25048;49.590;11.026;2023-08-08T14:31:05;23.30;89.50
29281;DHT22;25048;49.590;11.026;2023-08-08T14:33:33;23.40;91.20
29281;DHT22;25048;49.590;11.026;2023-08-08T14:36:01;23.60;86.60
29281;DHT22;25048;49.590;11.026;2023-08-08T14:38:33;23.70;88.00
29281;DHT22;25048;49.590;11.026;2023-08-08T14:40:58;23.70;87.40
29281;DHT22;25048;49.590;11.026;2023-08-08T14:43:25;23.80;86.30
29281;DHT22;25048;49.590;11.026;2023-08-08T14:45:53;24.10;86.00
29281;DHT22;25048;49.590;11.026;2023-08-08T14:48:20;24.50;85.20
29281;DHT22;25048;49.590;11.026;2023-08-08T14:50:48;24.70;86.50
29281;DHT22;25048;49.590;11.026;2023-08-08T14:53:15;24.50;84.90
29281;DHT22;25048;49.590;11.026;2023-08-08T14:55:43;24.20;85.60
29281;DHT22;25048;49.590;11.026;2023-08-08T14:58:10;23.80;87.40
29281;DHT22;25048;49.590;11.026;2023-08-08T15:00:38;23.70;86.80
29281;DHT22;25048;49.590;11.026;2023-08-08T15:03:06;23.70;89.90
29281;DHT22;25048;49.590;11.026;2023-08-08T15:05:33;23.70;87.80
29281;DHT22;25048;49.590;11.026;2023-08-08T15:08:01;23.40;87.30
29281;DHT22;25048;49.590;11.026;2023-08-08T15:10:29;23.20;89.30
29281;DHT22;25048;49.590;11.026;2023-08-08T15:12:57;22.90;89.80
29281;DHT22;25048;49.590;11.026;2023-08-08T15:15:25;22.60;89.80
29281;DHT22;25048;49.590;11.026;2023-08-08T15:17:54;22.50;90.40
29281;DHT22;25048;49.590;11.026;2023-08-08T15:20:21;22.50;91.30
29281;DHT22;25048;49.590;11.026;2023-08-08T15:22:49;22.50;90.40
29281;DHT22;25048;49.590;11.026;2023-08-08T15:25:16;22.30;90.60